Concord, California
Current Conditions -  °F | °C
As of 4:53 PM on Saturday 20 Dec 2014 (Local Time) from KCCR Reporting Station
Overcast Overcast  
Wind Chill: 61°   Ceiling: 3600
Heat Index: 61°   Visibility: 10mi
Dew Point: 50°   Wind: 9mph
Humidity: 67%   Direction: 180°S
Pressure: 30.21"   Gusts: NA
Location:  37.98°N, 122.02°W
Report Text: KCCR 210053Z 18008KT 10SM FEW028 OVC036 16/10 A3021 RMK AO2 SLP215 T01610100
Loading
Personal Weather Stations






























Interactive Weather Map New forecast layout! Learn more

10-Day Weather Forecast

Advertisements
Track Severe Weather on mobile